Archival Weather

Downtown Manhattan/Wall St

New York, Downtown Manhattan/Wall St (KJRB)

Report from: Friday, February 23, 2024 5:56 PM EST
Current time: Wednesday, May 29, 2024 8:19 PM EDT

Current weather – Weather history – Daily summaries
Weather forecast

Temperature7.8°C (46.0°F)
Wind chill6.2°C (43.1°F)
Dew point3.9°C (39.0°F)
Winds 5 kts (2.6 m/s, 5.8 mph) West (260°)
Visibility10 mi. (16.1 km)
Clouds Few clouds 12,000 ft. (3,658 m)
Altimeter29.47 in.Hg (998 mB)
Relative humidity76 %
Density altitude-225 ft. (-68 m)
Sea-level pressure99.8 kPa (998 mB, 29.47 in.Hg)
Remarks Fully automated report
System requires maintenance
Automated weather observing station with precipitation discriminator
Precipitation sensor not operating
Flight conditions Visual Meteorological Conditions
Raw dataKJRB 232256Z AUTO 26005KT 10SM FEW120 08/04 A2947 RMK AO2 SLP980 T00780039 PNO $
An error has occurred. This application may no longer respond until reloaded. Reload 🗙